Time;durP1;ratioP1;P1;durP2;ratioP2;P2;SDS_P1;SDS_P2;PMS_P1;PMS_P2;Temp;Humidity;BMP_temperature;BMP_pressure;BME280_temperature;BME280_humidity;BME280_pressure;Samples;Min_cycle;Max_cycle;Signal;HPM_P1;HPM_P2
2023/01/27 00:00:07;;;;;;;15.82;7.53;;;4.60;99.90;;;;;;5049558;28;20652;-65
2023/01/27 00:02:33;;;;;;;18.75;8.93;;;4.60;99.90;;;;;;5033008;28;20056;-68
2023/01/27 00:04:59;;;;;;;16.02;7.93;;;4.60;99.90;;;;;;5049511;28;20475;-66
2023/01/27 00:07:24;;;;;;;16.95;8.60;;;4.60;99.90;;;;;;5047578;28;20206;-65
2023/01/27 00:09:50;;;;;;;13.02;8.00;;;4.50;99.90;;;;;;5048519;28;20047;-66
2023/01/27 00:15:09;;;;;;;;;;;4.50;99.90;;;;;;5049806;28;20428;-68
2023/01/27 00:17:35;;;;;;;16.58;8.20;;;4.40;99.90;;;;;;5049523;28;19924;-67
2023/01/27 00:20:01;;;;;;;11.95;8.90;;;4.40;99.90;;;;;;5048976;28;20048;-68
2023/01/27 00:25:11;;;;;;;16.10;9.13;;;4.40;99.90;;;;;;5049309;28;20037;-68
2023/01/27 00:27:37;;;;;;;13.95;8.80;;;4.30;99.90;;;;;;5063191;28;20052;-68
2023/01/27 00:30:04;;;;;;;13.38;8.40;;;4.30;99.90;;;;;;5067274;28;20040;-68
2023/01/27 00:35:15;;;;;;;13.45;9.10;;;4.40;99.90;;;;;;5068841;28;20136;-67
2023/01/27 00:37:45;;;;;;;13.75;8.55;;;4.30;99.90;;;;;;5068353;28;20075;-66
2023/01/27 00:40:13;;;;;;;12.27;8.13;;;4.30;99.90;;;;;;5068707;28;20029;-66
2023/01/27 00:42:38;;;;;;;13.02;8.65;;;4.30;99.90;;;;;;5068755;28;20072;-70
2023/01/27 00:47:50;;;;;;;14.77;8.27;;;4.30;99.90;;;;;;5068011;28;20544;-68
2023/01/27 00:50:16;;;;;;;12.57;8.95;;;4.30;99.90;;;;;;5051001;28;20048;-70
2023/01/27 00:52:43;;;;;;;13.93;8.82;;;4.30;99.90;;;;;;5068606;28;20119;-70
2023/01/27 00:55:11;;;;;;;11.18;8.57;;;4.40;99.90;;;;;;5068234;28;20124;-67
2023/01/27 00:57:37;;;;;;;13.80;8.65;;;4.30;99.90;;;;;;5068445;28;20037;-68
2023/01/27 01:00:08;;;;;;;9.65;7.93;;;4.30;99.90;;;;;;5067555;28;20155;-66
2023/01/27 01:02:34;;;;;;;13.30;8.35;;;4.30;99.90;;;;;;5068281;28;20087;-68
2023/01/27 01:05:00;;;;;;;11.98;8.65;;;4.30;99.90;;;;;;5068240;28;20119;-69
2023/01/27 01:07:25;;;;;;;10.30;7.95;;;4.30;99.90;;;;;;5068785;28;20098;-69
2023/01/27 01:09:51;;;;;;;12.07;8.75;;;4.20;99.90;;;;;;5068159;28;20044;-67
2023/01/27 01:12:17;;;;;;;11.45;8.40;;;4.20;99.90;;;;;;5068513;28;20049;-66
2023/01/27 01:14:42;;;;;;;10.30;8.50;;;4.20;99.90;;;;;;5068285;28;20040;-65
2023/01/27 01:17:08;;;;;;;8.25;7.45;;;4.30;99.90;;;;;;5068300;28;20501;-67
2023/01/27 01:19:34;;;;;;;8.13;7.10;;;4.30;99.90;;;;;;5068283;28;20558;-67
2023/01/27 01:21:59;;;;;;;7.65;6.68;;;4.30;99.90;;;;;;5068424;28;20076;-67
2023/01/27 01:24:25;;;;;;;7.93;6.30;;;4.30;99.90;;;;;;5068637;28;20032;-65
2023/01/27 01:26:51;;;;;;;8.43;6.60;;;4.30;99.90;;;;;;5051628;28;20044;-66
2023/01/27 01:29:17;;;;;;;7.85;6.35;;;4.30;99.90;;;;;;5068370;28;20558;-67
2023/01/27 01:31:42;;;;;;;7.10;6.32;;;4.30;99.90;;;;;;5068300;28;20120;-66
2023/01/27 01:34:08;;;;;;;8.63;6.60;;;4.30;99.90;;;;;;5068161;28;20036;-67
2023/01/27 01:36:34;;;;;;;6.93;5.72;;;4.30;99.90;;;;;;5068254;28;20049;-66
2023/01/27 01:38:59;;;;;;;10.07;6.05;;;4.20;99.90;;;;;;5067758;28;20063;-65
2023/01/27 01:41:25;;;;;;;8.10;5.88;;;4.20;99.90;;;;;;5067450;28;20037;-68
2023/01/27 01:43:51;;;;;;;8.32;6.00;;;4.20;99.90;;;;;;5068476;28;20467;-68
2023/01/27 01:46:18;;;;;;;6.70;5.38;;;4.30;99.90;;;;;;5068049;28;20033;-66
2023/01/27 01:48:45;;;;;;;6.45;5.13;;;4.30;99.90;;;;;;5068051;28;20039;-69
2023/01/27 01:51:30;;;;;;;5.85;5.05;;;4.20;99.90;;;;;;5067914;28;20051;-65
2023/01/27 01:54:01;;;;;;;7.95;4.40;;;4.30;99.90;;;;;;5067700;28;20159;-67
2023/01/27 01:56:38;;;;;;;8.18;4.50;;;4.30;99.90;;;;;;5051014;28;20040;-67
2023/01/27 01:59:13;;;;;;;5.63;4.15;;;4.30;99.90;;;;;;5067446;28;20118;-66
2023/01/27 02:01:38;;;;;;;6.50;4.05;;;4.30;99.90;;;;;;5068262;28;20089;-66
2023/01/27 02:04:08;;;;;;;5.22;3.90;;;4.30;99.90;;;;;;5051192;28;20045;-66
2023/01/27 02:06:52;;;;;;;7.15;4.47;;;4.30;99.90;;;;;;5067744;28;20040;-65
2023/01/27 02:09:20;;;;;;;5.20;3.88;;;4.30;99.90;;;;;;5067762;28;20044;-66
2023/01/27 02:11:46;;;;;;;5.85;3.92;;;4.40;99.90;;;;;;5067930;28;20488;-67
2023/01/27 02:14:14;;;;;;;6.30;4.38;;;4.40;99.90;;;;;;5067431;28;20047;-65
2023/01/27 02:16:40;;;;;;;5.97;4.53;;;4.40;99.90;;;;;;5067958;28;20429;-69
2023/01/27 02:19:13;;;;;;;6.22;4.43;;;4.40;99.90;;;;;;5068026;28;20119;-67
2023/01/27 02:21:39;;;;;;;7.35;5.15;;;4.40;99.90;;;;;;5065006;28;20618;-68
2023/01/27 02:24:09;;;;;;;8.70;4.82;;;4.30;99.90;;;;;;5066712;28;20124;-69
2023/01/27 02:26:39;;;;;;;11.10;6.20;;;4.30;99.90;;;;;;5067489;28;20061;-67
2023/01/27 02:29:07;;;;;;;6.45;5.47;;;4.30;99.90;;;;;;5051021;28;20499;-68
2023/01/27 02:31:33;;;;;;;7.00;5.97;;;4.40;99.90;;;;;;5067969;28;20384;-67
2023/01/27 02:34:03;;;;;;;7.30;5.80;;;4.30;99.90;;;;;;5071176;28;20051;-67
2023/01/27 02:36:33;;;;;;;6.45;5.82;;;4.30;99.90;;;;;;5070846;28;20040;-66
2023/01/27 02:39:01;;;;;;;6.72;5.47;;;4.30;99.90;;;;;;5070137;28;20410;-66
2023/01/27 02:41:39;;;;;;;6.90;5.78;;;4.30;99.90;;;;;;5054851;28;20049;-64
2023/01/27 02:44:05;;;;;;;7.57;6.20;;;4.40;99.90;;;;;;5070929;28;20044;-70
2023/01/27 02:46:31;;;;;;;8.25;5.90;;;4.40;99.90;;;;;;5070238;28;20076;-68
2023/01/27 02:48:57;;;;;;;6.47;5.38;;;4.30;99.90;;;;;;5070923;28;20076;-67
2023/01/27 02:51:23;;;;;;;7.80;5.03;;;4.40;99.90;;;;;;5070979;28;20043;-65
2023/01/27 02:53:48;;;;;;;6.15;5.00;;;4.30;99.90;;;;;;5069261;28;20044;-66
2023/01/27 02:56:14;;;;;;;6.85;4.38;;;4.30;99.90;;;;;;5070424;28;20526;-65
2023/01/27 02:58:40;;;;;;;7.80;4.63;;;4.30;99.90;;;;;;5071258;28;20127;-66
2023/01/27 03:01:07;;;;;;;6.72;4.25;;;4.30;99.90;;;;;;5070923;28;20048;-69
2023/01/27 03:03:32;;;;;;;5.70;4.30;;;4.30;99.90;;;;;;5070869;28;20042;-66
2023/01/27 03:05:58;;;;;;;4.47;4.03;;;4.30;99.90;;;;;;5054234;28;20461;-66
2023/01/27 03:08:24;;;;;;;5.10;3.92;;;4.30;99.90;;;;;;5070245;28;20502;-65
2023/01/27 03:10:51;;;;;;;6.93;3.53;;;4.30;99.90;;;;;;5070568;28;20092;-69
2023/01/27 03:13:23;;;;;;;5.05;3.25;;;4.30;99.90;;;;;;5070671;28;20482;-66
2023/01/27 03:18:33;;;;;;;5.93;2.85;;;4.30;99.90;;;;;;5070335;28;20060;-66
2023/01/27 03:21:01;;;;;;;2.83;2.35;;;4.30;99.90;;;;;;5070532;28;20040;-68
2023/01/27 03:23:27;;;;;;;4.75;2.80;;;4.30;99.90;;;;;;5053813;28;20040;-68
2023/01/27 03:25:52;;;;;;;3.65;2.83;;;4.30;99.90;;;;;;5070140;28;20047;-68
2023/01/27 03:28:18;;;;;;;4.75;2.63;;;4.30;99.90;;;;;;5070001;28;20040;-69
2023/01/27 03:30:44;;;;;;;3.35;2.63;;;4.30;99.90;;;;;;5070542;28;20106;-70
2023/01/27 03:33:09;;;;;;;5.28;2.30;;;4.30;99.90;;;;;;5070411;28;20560;-68
2023/01/27 03:35:47;;;;;;;3.28;1.90;;;4.30;99.90;;;;;;5070122;28;20041;-66
2023/01/27 03:46:31;;;;;;;3.03;1.80;;;4.40;99.90;;;;;;5070142;28;20052;-66
2023/01/27 03:48:58;;;;;;;2.00;1.80;;;4.40;99.90;;;;;;5053191;28;20084;-67
2023/01/27 03:51:25;;;;;;;2.05;1.58;;;4.40;99.90;;;;;;5069672;28;20044;-67
2023/01/27 03:53:51;;;;;;;3.22;1.50;;;4.40;99.90;;;;;;5069827;28;20097;-68
2023/01/27 03:56:19;;;;;;;3.88;1.75;;;4.40;99.90;;;;;;5069760;28;20048;-69
2023/01/27 03:58:44;;;;;;;3.80;1.70;;;4.40;99.90;;;;;;5069868;28;20040;-69
2023/01/27 04:01:19;;;;;;;2.33;1.60;;;4.40;99.90;;;;;;5069918;28;20032;-68
2023/01/27 04:09:22;;;;;;;4.57;1.85;;;4.40;99.90;;;;;;5069640;28;20055;-66
2023/01/27 04:11:54;;;;;;;1.90;1.58;;;4.40;99.90;;;;;;5069076;28;20048;-69
2023/01/27 04:14:42;;;;;;;2.20;2.00;;;4.40;99.90;;;;;;5065883;28;20131;-68
2023/01/27 04:17:16;;;;;;;2.55;1.85;;;4.40;99.90;;;;;;5068555;28;20086;-68
2023/01/27 04:19:42;;;;;;;3.33;1.70;;;4.30;99.90;;;;;;5069523;28;20043;-68
2023/01/27 04:22:10;;;;;;;4.85;1.70;;;4.30;99.90;;;;;;5068823;28;20044;-69
2023/01/27 04:24:35;;;;;;;3.53;1.77;;;4.30;99.90;;;;;;5069320;28;20048;-67
2023/01/27 04:27:04;;;;;;;2.13;1.60;;;4.30;99.90;;;;;;5068921;28;20062;-68
2023/01/27 04:29:33;;;;;;;2.17;1.65;;;4.30;99.90;;;;;;5068819;28;20048;-68
2023/01/27 04:31:59;;;;;;;2.15;1.63;;;4.30;99.90;;;;;;5068860;28;20314;-66
2023/01/27 04:34:26;;;;;;;2.35;1.50;;;4.20;99.90;;;;;;5068686;28;20101;-67
2023/01/27 04:36:53;;;;;;;3.85;1.58;;;4.30;99.90;;;;;;5069098;28;20029;-68
2023/01/27 04:39:18;;;;;;;2.03;1.40;;;4.30;99.90;;;;;;5068875;28;20033;-69
2023/01/27 04:41:44;;;;;;;3.35;1.83;;;4.30;99.90;;;;;;5069032;28;20045;-69
2023/01/27 04:44:11;;;;;;;3.10;1.45;;;4.30;99.90;;;;;;5050499;28;20082;-68
2023/01/27 04:46:37;;;;;;;3.33;1.58;;;4.30;99.90;;;;;;5069062;28;20041;-69
2023/01/27 04:49:04;;;;;;;1.60;1.35;;;4.30;99.90;;;;;;5068440;28;20090;-68
2023/01/27 04:51:30;;;;;;;2.85;1.63;;;4.30;99.90;;;;;;5068796;28;20127;-66
2023/01/27 04:53:55;;;;;;;2.70;1.60;;;4.30;99.90;;;;;;5068337;28;20427;-70
2023/01/27 04:56:26;;;;;;;2.17;1.60;;;4.30;99.90;;;;;;5068421;28;20234;-68
2023/01/27 04:58:52;;;;;;;4.03;1.67;;;4.30;99.90;;;;;;5068991;28;20039;-66
2023/01/27 05:01:18;;;;;;;3.65;1.63;;;4.30;99.90;;;;;;5068536;28;20062;-68
2023/01/27 05:03:44;;;;;;;6.72;1.75;;;4.30;99.90;;;;;;5068385;28;20399;-66
2023/01/27 05:06:10;;;;;;;4.05;1.70;;;4.30;99.90;;;;;;5068911;28;20182;-68
2023/01/27 05:08:36;;;;;;;2.70;1.60;;;4.30;99.90;;;;;;5068866;28;20487;-66
2023/01/27 05:11:02;;;;;;;2.22;1.67;;;4.30;99.90;;;;;;5068195;28;20039;-66
2023/01/27 05:13:27;;;;;;;2.30;1.65;;;4.20;99.90;;;;;;5068342;28;20106;-66
2023/01/27 05:16:15;;;;;;;2.40;1.48;;;4.30;99.90;;;;;;5068019;28;20036;-69
2023/01/27 05:18:42;;;;;;;3.35;1.70;;;4.20;99.90;;;;;;5068486;28;20497;-68
2023/01/27 05:21:12;;;;;;;2.80;1.55;;;4.20;99.90;;;;;;5068314;28;21437;-68
2023/01/27 05:23:38;;;;;;;2.92;1.70;;;4.20;99.90;;;;;;5068184;28;20123;-67
2023/01/27 05:26:12;;;;;;;2.22;1.60;;;4.20;99.90;;;;;;5067716;28;20506;-67
2023/01/27 05:28:40;;;;;;;3.40;2.00;;;4.20;99.90;;;;;;5068241;28;20509;-68
2023/01/27 05:31:15;;;;;;;2.72;2.10;;;4.20;99.90;;;;;;5051403;28;20055;-69
2023/01/27 05:33:41;;;;;;;5.07;2.05;;;4.10;99.90;;;;;;5068094;28;20048;-67
2023/01/27 05:36:09;;;;;;;2.67;1.75;;;4.10;99.90;;;;;;5067792;28;20385;-69
2023/01/27 05:38:35;;;;;;;3.58;2.33;;;4.10;99.90;;;;;;5068254;28;20055;-69
2023/01/27 05:41:03;;;;;;;3.95;1.80;;;4.10;99.90;;;;;;5068078;28;20487;-66
2023/01/27 05:43:31;;;;;;;3.10;1.95;;;4.10;99.90;;;;;;5068376;28;20514;-69
2023/01/27 05:46:05;;;;;;;3.70;2.10;;;4.10;99.90;;;;;;5051346;28;20032;-69
2023/01/27 05:48:33;;;;;;;2.92;1.80;;;4.10;99.90;;;;;;5067271;28;20040;-69
2023/01/27 05:50:59;;;;;;;2.50;1.70;;;4.10;99.90;;;;;;5068389;28;20048;-68
2023/01/27 05:53:25;;;;;;;4.38;1.70;;;4.10;99.90;;;;;;5067986;28;20047;-68
2023/01/27 05:55:51;;;;;;;2.75;1.70;;;4.10;99.90;;;;;;5067749;28;20072;-68
2023/01/27 05:58:17;;;;;;;4.15;1.80;;;4.10;99.90;;;;;;5051273;28;20032;-68
2023/01/27 06:00:43;;;;;;;3.20;1.65;;;4.10;99.90;;;;;;5068200;28;20036;-67
2023/01/27 06:03:09;;;;;;;3.70;1.88;;;4.00;99.90;;;;;;5067910;28;20076;-69
2023/01/27 06:05:34;;;;;;;2.00;1.80;;;4.10;99.90;;;;;;5064763;28;20080;-68
2023/01/27 06:08:00;;;;;;;4.00;1.67;;;4.10;99.90;;;;;;5071312;28;20399;-69
2023/01/27 06:10:26;;;;;;;3.70;1.63;;;4.10;99.90;;;;;;5071830;28;20090;-68
2023/01/27 06:12:51;;;;;;;4.00;1.73;;;4.00;99.90;;;;;;5072074;28;20045;-68
2023/01/27 06:15:17;;;;;;;3.25;1.58;;;4.10;99.90;;;;;;5071784;28;20066;-68
2023/01/27 06:17:42;;;;;;;4.78;1.80;;;4.10;99.90;;;;;;5071437;28;20119;-66
2023/01/27 06:20:09;;;;;;;4.30;1.92;;;4.10;99.90;;;;;;5070921;28;20043;-68
2023/01/27 06:22:34;;;;;;;2.33;1.58;;;4.10;99.90;;;;;;5071496;28;20482;-68
2023/01/27 06:25:00;;;;;;;2.35;1.50;;;4.10;99.90;;;;;;5071082;28;20040;-66
2023/01/27 06:27:26;;;;;;;5.40;1.67;;;4.10;99.90;;;;;;5071332;28;20068;-67
2023/01/27 06:29:51;;;;;;;4.53;2.08;;;4.10;99.90;;;;;;5070881;28;20080;-66
2023/01/27 06:32:17;;;;;;;3.25;1.38;;;4.10;99.90;;;;;;5071252;28;20056;-67
2023/01/27 06:34:43;;;;;;;3.72;1.90;;;4.10;99.90;;;;;;5070931;28;20070;-67
2023/01/27 06:37:08;;;;;;;4.93;1.55;;;4.10;99.90;;;;;;5071006;28;20476;-68
2023/01/27 06:39:34;;;;;;;2.30;1.40;;;4.10;99.90;;;;;;5054418;28;20089;-67
2023/01/27 06:41:59;;;;;;;2.88;1.60;;;4.10;99.90;;;;;;5071466;28;20547;-67
2023/01/27 06:44:25;;;;;;;1.60;1.50;;;4.10;99.90;;;;;;5071402;28;20085;-67
2023/01/27 06:46:52;;;;;;;4.72;2.17;;;4.10;99.90;;;;;;5071415;28;20109;-66
2023/01/27 06:49:18;;;;;;;4.10;1.77;;;4.10;99.90;;;;;;5072358;28;20478;-67
2023/01/27 06:51:43;;;;;;;2.70;1.77;;;4.10;99.90;;;;;;5070521;28;20207;-65
2023/01/27 06:54:10;;;;;;;4.35;2.10;;;4.10;99.90;;;;;;5071020;28;20059;-66
2023/01/27 06:56:36;;;;;;;3.25;2.05;;;4.10;99.90;;;;;;5070798;28;20036;-65
2023/01/27 06:59:01;;;;;;;2.28;1.77;;;4.10;99.90;;;;;;5071139;28;20105;-66
2023/01/27 07:01:27;;;;;;;3.90;2.05;;;4.10;99.90;;;;;;5070628;28;20040;-67
2023/01/27 07:03:53;;;;;;;4.13;2.05;;;4.10;99.90;;;;;;5071356;28;20029;-68
2023/01/27 07:06:19;;;;;;;4.60;2.63;;;4.10;99.90;;;;;;5070760;28;20040;-67
2023/01/27 07:08:46;;;;;;;3.58;1.98;;;4.10;99.90;;;;;;5070607;28;20435;-67
2023/01/27 07:11:12;;;;;;;4.43;2.53;;;4.10;99.90;;;;;;5071132;28;20044;-67
2023/01/27 07:13:38;;;;;;;4.03;2.15;;;4.10;99.90;;;;;;5070275;28;20055;-65
2023/01/27 07:16:04;;;;;;;3.22;2.20;;;4.10;99.90;;;;;;5069572;28;20041;-67
2023/01/27 07:18:29;;;;;;;4.80;2.40;;;4.10;99.90;;;;;;5069612;28;20059;-68
2023/01/27 07:20:55;;;;;;;4.15;2.47;;;4.00;99.90;;;;;;5070813;28;20064;-67
2023/01/27 07:23:21;;;;;;;5.93;2.42;;;4.10;99.90;;;;;;5069879;28;20051;-70
2023/01/27 07:25:47;;;;;;;6.28;2.45;;;4.10;99.90;;;;;;5053569;28;20079;-67
2023/01/27 07:28:13;;;;;;;3.30;2.03;;;4.00;99.90;;;;;;5070157;28;20062;-67
2023/01/27 07:30:38;;;;;;;3.80;2.30;;;4.00;99.90;;;;;;5052336;28;20090;-68
2023/01/27 07:33:10;;;;;;;3.13;2.28;;;4.00;99.90;;;;;;5071538;28;20068;-67
2023/01/27 07:35:37;;;;;;;2.80;2.15;;;4.00;99.90;;;;;;5069766;28;20040;-66
2023/01/27 07:38:05;;;;;;;2.85;2.30;;;4.00;99.90;;;;;;5053724;28;20052;-67
2023/01/27 07:40:30;;;;;;;5.50;2.50;;;4.00;99.90;;;;;;5070062;28;20033;-69
2023/01/27 07:43:00;;;;;;;5.22;2.67;;;4.00;99.90;;;;;;5069493;28;20512;-67
2023/01/27 07:45:27;;;;;;;2.92;2.35;;;3.90;99.90;;;;;;5070112;28;20051;-66
2023/01/27 07:47:53;;;;;;;4.40;2.55;;;3.90;99.90;;;;;;5069566;28;20399;-68
2023/01/27 07:50:20;;;;;;;3.67;2.47;;;3.90;99.90;;;;;;5069877;28;20047;-70
2023/01/27 07:52:46;;;;;;;3.72;2.28;;;3.90;99.90;;;;;;5069658;28;20048;-67
2023/01/27 07:55:11;;;;;;;4.50;2.30;;;3.90;99.90;;;;;;5050849;28;20124;-69
2023/01/27 07:57:37;;;;;;;3.30;2.30;;;3.90;99.90;;;;;;5069378;28;20037;-67
2023/01/27 08:00:04;;;;;;;3.53;2.13;;;3.90;99.90;;;;;;5069589;28;20043;-70
2023/01/27 08:02:30;;;;;;;4.80;2.30;;;3.90;99.90;;;;;;5069501;28;20071;-68
2023/01/27 08:04:56;;;;;;;6.03;2.95;;;3.90;99.90;;;;;;5068937;28;20428;-66
2023/01/27 08:07:21;;;;;;;3.75;1.95;;;4.00;99.90;;;;;;5069493;28;20044;-68
2023/01/27 08:09:47;;;;;;;3.35;1.95;;;4.00;99.90;;;;;;5069414;28;20094;-70
2023/01/27 08:12:13;;;;;;;5.15;1.88;;;4.10;99.90;;;;;;5069635;28;20455;-67
2023/01/27 08:14:39;;;;;;;5.32;1.92;;;4.10;99.90;;;;;;5069432;28;20127;-67
2023/01/27 08:17:05;;;;;;;3.72;1.70;;;4.20;99.90;;;;;;5068726;28;20068;-70
2023/01/27 08:19:30;;;;;;;4.72;1.88;;;4.20;99.90;;;;;;5069551;28;20035;-70
2023/01/27 08:21:56;;;;;;;4.47;1.95;;;4.30;99.90;;;;;;5069303;28;20037;-67
2023/01/27 08:24:21;;;;;;;3.28;1.80;;;4.40;99.90;;;;;;5069097;28;20052;-68
2023/01/27 08:26:47;;;;;;;4.63;2.20;;;4.40;99.90;;;;;;5068677;28;20056;-68
2023/01/27 08:29:14;;;;;;;4.90;1.92;;;4.40;99.90;;;;;;5068327;28;20045;-69
2023/01/27 08:31:40;;;;;;;4.20;1.90;;;4.40;99.90;;;;;;5069078;28;20044;-67
2023/01/27 08:34:06;;;;;;;4.38;1.88;;;4.40;99.90;;;;;;5069160;28;20047;-67
2023/01/27 08:36:32;;;;;;;4.60;2.10;;;4.40;99.90;;;;;;5068906;28;20376;-69
2023/01/27 08:38:58;;;;;;;3.63;1.92;;;4.50;99.90;;;;;;5068863;28;20056;-67
2023/01/27 08:41:25;;;;;;;5.05;1.83;;;4.50;99.90;;;;;;5052279;28;20040;-69
2023/01/27 08:43:52;;;;;;;4.95;1.92;;;4.50;99.90;;;;;;5052130;28;20090;-67
2023/01/27 08:46:18;;;;;;;3.72;1.70;;;4.50;99.90;;;;;;5069012;28;20040;-67
2023/01/27 08:48:44;;;;;;;3.70;1.80;;;4.50;99.90;;;;;;5069013;28;20090;-68
2023/01/27 08:51:16;;;;;;;5.78;1.98;;;4.50;99.90;;;;;;5127854;27;20516;-69
2023/01/27 08:53:42;;;;;;;3.72;1.90;;;4.60;99.90;;;;;;5131705;27;20047;-67
2023/01/27 08:56:11;;;;;;;4.60;2.10;;;4.60;99.90;;;;;;5124941;27;20550;-67
2023/01/27 08:58:37;;;;;;;4.95;2.00;;;4.60;99.90;;;;;;5105922;27;20054;-67
2023/01/27 09:01:04;;;;;;;4.95;1.95;;;4.60;99.90;;;;;;5125776;27;20481;-69
2023/01/27 09:03:31;;;;;;;4.25;1.92;;;4.60;99.90;;;;;;5139371;27;20035;-70
2023/01/27 09:05:58;;;;;;;2.90;1.55;;;4.70;99.90;;;;;;5135600;27;20154;-69
2023/01/27 09:08:24;;;;;;;5.22;2.42;;;4.60;99.90;;;;;;5139234;27;20084;-67
2023/01/27 09:10:50;;;;;;;2.65;1.55;;;4.70;99.90;;;;;;5139408;27;20051;-67
2023/01/27 09:13:17;;;;;;;4.80;1.92;;;4.70;99.90;;;;;;5145676;27;20034;-66
2023/01/27 09:15:43;;;;;;;6.10;1.92;;;4.70;99.90;;;;;;5129493;27;20047;-69
2023/01/27 09:18:09;;;;;;;7.80;2.42;;;4.70;99.90;;;;;;5144751;27;20051;-68
2023/01/27 09:20:38;;;;;;;5.35;2.33;;;4.80;99.90;;;;;;5146521;27;20417;-69
2023/01/27 09:23:04;;;;;;;5.05;2.10;;;4.80;99.90;;;;;;5146475;27;20109;-68
2023/01/27 09:25:30;;;;;;;3.58;1.77;;;4.80;99.90;;;;;;5134625;27;20130;-66
2023/01/27 09:27:57;;;;;;;5.40;2.20;;;4.80;99.90;;;;;;5145628;27;20034;-68
2023/01/27 09:30:24;;;;;;;3.75;2.00;;;4.90;99.90;;;;;;5146017;27;20041;-69
2023/01/27 09:32:50;;;;;;;5.85;2.65;;;4.90;99.90;;;;;;5146341;27;20039;-68
2023/01/27 09:35:16;;;;;;;4.47;2.10;;;4.90;99.90;;;;;;5141666;27;20389;-66
2023/01/27 09:37:52;;;;;;;4.18;1.98;;;4.90;99.90;;;;;;5145416;27;20038;-69
2023/01/27 09:40:30;;;;;;;4.82;2.08;;;5.00;99.90;;;;;;5146153;27;20049;-67
2023/01/27 09:43:08;;;;;;;5.40;1.95;;;5.00;99.90;;;;;;5129069;27;20066;-68
2023/01/27 09:45:42;;;;;;;5.28;2.50;;;5.00;99.90;;;;;;5144704;27;20070;-66
2023/01/27 09:48:35;;;;;;;6.82;2.78;;;5.00;99.90;;;;;;5123422;27;20441;-68
2023/01/27 09:51:04;;;;;;;4.75;2.50;;;5.10;99.90;;;;;;5147750;27;20046;-70
2023/01/27 09:53:59;;;;;;;4.03;2.20;;;5.10;99.90;;;;;;5138327;27;20051;-68
2023/01/27 09:56:44;;;;;;;3.08;2.55;;;5.20;99.90;;;;;;5124826;27;20529;-66
2023/01/27 09:59:35;;;;;;;3.63;2.60;;;5.20;99.90;;;;;;5127545;27;20039;-67
2023/01/27 10:02:03;;;;;;;4.60;2.90;;;5.30;99.90;;;;;;5130311;27;20410;-66
2023/01/27 10:05:00;;;;;;;4.38;2.67;;;5.30;99.90;;;;;;5125372;27;20039;-69
2023/01/27 10:07:35;;;;;;;5.28;2.60;;;5.30;99.90;;;;;;5117031;27;20177;-66
2023/01/27 10:10:40;;;;;;;4.47;2.47;;;5.30;99.90;;;;;;5130397;27;20047;-68
2023/01/27 10:13:28;;;;;;;3.65;2.55;;;5.30;99.90;;;;;;5131663;27;20119;-66
2023/01/27 10:16:28;;;;;;;4.53;2.92;;;5.30;99.90;;;;;;5131882;27;20486;-66
2023/01/27 10:19:23;;;;;;;5.30;2.92;;;5.30;99.90;;;;;;5110237;28;20398;-67
2023/01/27 10:22:26;;;;;;;3.28;2.60;;;5.30;99.90;;;;;;5130763;27;20083;-71
2023/01/27 10:25:07;;;;;;;;;;;5.30;99.90;;;;;;5109314;27;20044;-69
2023/01/27 10:27:39;;;;;;;6.70;2.95;;;5.30;99.90;;;;;;5118929;27;19915;-67
2023/01/27 10:30:32;;;;;;;4.18;2.53;;;5.30;99.90;;;;;;5112287;28;20043;-68
2023/01/27 10:33:17;;;;;;;2.55;2.33;;;5.30;99.90;;;;;;5130859;27;20062;-69
2023/01/27 10:36:02;;;;;;;2.90;1.88;;;5.40;99.90;;;;;;5110816;28;20036;-68
2023/01/27 10:38:35;;;;;;;2.30;2.10;;;5.40;99.90;;;;;;5099169;28;20039;-68
2023/01/27 10:41:19;;;;;;;3.78;1.90;;;5.40;99.90;;;;;;5109718;28;20055;-69
2023/01/27 10:44:32;;;;;;;2.35;1.98;;;5.40;99.90;;;;;;5092947;28;20146;-66
2023/01/27 10:47:01;;;;;;;2.10;1.90;;;5.20;99.90;;;;;;5011903;28;20491;-66
2023/01/27 10:49:31;;;;;;;3.05;2.10;;;5.20;99.90;;;;;;5028751;28;20045;-70
2023/01/27 10:52:17;;;;;;;3.10;2.13;;;5.10;99.90;;;;;;4995129;28;20485;-66
2023/01/27 10:54:56;;;;;;;3.45;1.98;;;5.10;99.90;;;;;;5011935;28;20099;-71
2023/01/27 10:57:29;;;;;;;1.80;1.70;;;5.10;99.90;;;;;;5012250;28;20084;-65
2023/01/27 11:00:30;;;;;;;4.20;2.50;;;5.10;99.90;;;;;;5012095;28;20055;-68
2023/01/27 11:03:20;;;;;;;2.20;1.70;;;5.10;99.90;;;;;;4953480;28;20130;-70
2023/01/27 11:05:51;;;;;;;2.03;1.77;;;5.00;99.90;;;;;;4952902;28;20128;-68
2023/01/27 11:08:25;;;;;;;2.88;2.10;;;5.00;99.90;;;;;;4969599;28;20133;-67
2023/01/27 11:13:47;;;;;;;1.95;1.80;;;5.00;99.90;;;;;;4952479;28;20088;-71
2023/01/27 11:16:18;;;;;;;2.10;1.90;;;4.90;99.90;;;;;;4953678;28;20051;-67
2023/01/27 11:18:45;;;;;;;2.17;1.80;;;4.90;99.90;;;;;;4953325;28;20054;-68
2023/01/27 11:21:20;;;;;;;3.05;1.60;;;4.90;99.90;;;;;;4953212;28;20046;-69
2023/01/27 11:23:54;;;;;;;2.40;1.60;;;4.90;99.90;;;;;;4985138;28;20215;-66
2023/01/27 11:26:36;;;;;;;4.10;1.88;;;4.80;99.90;;;;;;5013964;28;20053;-66
2023/01/27 11:29:10;;;;;;;2.92;1.55;;;4.80;99.90;;;;;;5048069;28;20041;-68
2023/01/27 11:32:09;;;;;;;2.85;1.70;;;4.80;99.90;;;;;;5030217;28;20033;-68
2023/01/27 11:35:01;;;;;;;2.85;1.45;;;4.70;99.90;;;;;;5031132;28;20032;-68
2023/01/27 11:37:32;;;;;;;3.42;1.50;;;4.80;99.90;;;;;;5030944;28;20056;-67
2023/01/27 11:39:59;;;;;;;1.83;1.58;;;4.70;99.90;;;;;;5101835;27;20059;-69
2023/01/27 11:42:33;;;;;;;3.35;1.90;;;4.80;99.90;;;;;;5120033;27;20080;-69
2023/01/27 11:45:00;;;;;;;2.40;1.98;;;4.80;99.90;;;;;;5130261;27;20042;-66
2023/01/27 11:47:37;;;;;;;2.83;1.67;;;4.80;99.90;;;;;;5109521;28;20039;-69
2023/01/27 11:50:04;;;;;;;1.60;1.50;;;4.80;99.90;;;;;;5092110;28;20081;-67
2023/01/27 11:52:30;;;;;;;2.25;1.80;;;4.80;99.90;;;;;;5128685;27;20043;-69
2023/01/27 11:55:15;;;;;;;2.53;1.55;;;4.80;99.90;;;;;;5129958;27;20470;-69
2023/01/27 11:58:02;;;;;;;3.63;2.28;;;4.80;99.90;;;;;;5129857;27;20496;-68
2023/01/27 12:00:40;;;;;;;2.38;1.80;;;4.80;99.90;;;;;;5011796;28;20057;-69
2023/01/27 12:03:41;;;;;;;2.20;1.73;;;4.80;99.90;;;;;;5026771;28;20092;-69
2023/01/27 12:06:14;;;;;;;2.00;1.70;;;4.80;99.90;;;;;;5026612;28;20053;-69
2023/01/27 12:08:48;;;;;;;3.10;1.70;;;4.90;99.90;;;;;;4993441;28;20053;-69
2023/01/27 12:11:26;;;;;;;2.33;2.00;;;4.90;99.90;;;;;;4993795;28;20583;-67
2023/01/27 12:13:55;;;;;;;3.53;1.83;;;4.90;99.90;;;;;;5026594;28;20492;-68
2023/01/27 12:16:28;;;;;;;4.88;2.20;;;4.90;99.90;;;;;;5026570;28;20179;-69
2023/01/27 12:18:59;;;;;;;3.33;2.03;;;4.90;99.90;;;;;;5026182;28;20053;-69
2023/01/27 12:21:45;;;;;;;2.95;1.95;;;4.90;99.90;;;;;;5025768;28;20045;-69
2023/01/27 12:24:25;;;;;;;3.08;2.10;;;5.00;99.90;;;;;;4993651;28;20519;-70
2023/01/27 12:26:52;;;;;;;3.85;1.67;;;5.00;99.90;;;;;;5026457;28;20164;-69
2023/01/27 12:29:22;;;;;;;2.30;2.00;;;5.00;99.90;;;;;;5010682;28;20184;-67
2023/01/27 12:31:50;;;;;;;3.60;2.25;;;5.00;99.90;;;;;;5009862;28;20068;-70
2023/01/27 12:34:30;;;;;;;3.92;2.75;;;5.00;99.90;;;;;;5027205;28;20048;-70
2023/01/27 12:36:57;;;;;;;2.50;1.90;;;5.00;99.90;;;;;;5044997;28;20082;-70
2023/01/27 12:39:26;;;;;;;2.22;1.50;;;5.00;99.90;;;;;;5118494;27;20040;-66
2023/01/27 12:41:52;;;;;;;2.20;1.88;;;5.00;99.90;;;;;;5119145;27;20043;-67
2023/01/27 12:44:21;;;;;;;2.47;1.80;;;4.90;99.90;;;;;;5114902;27;20490;-69
2023/01/27 12:47:12;;;;;;;2.20;2.00;;;4.90;99.90;;;;;;5129102;27;20598;-68
2023/01/27 12:49:39;;;;;;;1.85;1.42;;;5.00;99.90;;;;;;5112833;28;20047;-67
2023/01/27 12:52:08;;;;;;;1.80;1.45;;;5.00;99.90;;;;;;5128245;28;20043;-68
2023/01/27 12:54:34;;;;;;;1.58;1.33;;;5.00;99.90;;;;;;5129290;28;20035;-70
2023/01/27 12:57:09;;;;;;;1.90;1.35;;;5.00;99.90;;;;;;5111471;28;20072;-69
2023/01/27 12:59:43;;;;;;;1.52;1.40;;;5.10;99.90;;;;;;5106569;28;20055;-67
2023/01/27 13:02:29;;;;;;;1.67;1.50;;;5.10;99.90;;;;;;5112366;28;20124;-66
2023/01/27 13:05:01;;;;;;;1.60;1.50;;;5.10;99.90;;;;;;5128728;28;20062;-67
2023/01/27 13:07:41;;;;;;;2.63;1.30;;;5.10;99.90;;;;;;5128814;28;20094;-68
2023/01/27 13:10:16;;;;;;;1.60;1.42;;;5.10;99.90;;;;;;5121241;28;20050;-69
2023/01/27 13:12:54;;;;;;;1.45;1.30;;;5.10;99.90;;;;;;5110283;28;20776;-69
2023/01/27 13:15:22;;;;;;;1.40;1.30;;;5.00;99.90;;;;;;5128061;27;20043;-69
2023/01/27 13:17:53;;;;;;;2.65;1.80;;;5.00;99.90;;;;;;5128666;27;20047;-69
2023/01/27 13:20:25;;;;;;;1.58;1.48;;;5.00;99.90;;;;;;5119714;28;20525;-69
2023/01/27 13:22:53;;;;;;;1.70;1.30;;;5.00;99.90;;;;;;5114055;28;20048;-70
2023/01/27 13:25:27;;;;;;;2.08;1.40;;;5.00;99.90;;;;;;5109749;28;20082;-69
2023/01/27 13:27:58;;;;;;;1.20;1.10;;;5.00;99.90;;;;;;5094290;28;20075;-69
2023/01/27 13:30:32;;;;;;;1.40;1.30;;;4.90;99.90;;;;;;5097786;28;20527;-69
2023/01/27 13:33:19;;;;;;;1.52;1.42;;;4.90;99.90;;;;;;5124487;28;20036;-70
2023/01/27 13:36:05;;;;;;;1.98;1.30;;;4.90;99.90;;;;;;5117991;28;20055;-68
2023/01/27 13:38:55;;;;;;;1.27;1.17;;;4.80;99.90;;;;;;5119357;27;20066;-70
2023/01/27 13:41:58;;;;;;;1.65;1.00;;;4.80;99.90;;;;;;5126808;27;20035;-69
2023/01/27 13:44:35;;;;;;;1.20;1.10;;;4.80;99.90;;;;;;5033789;28;20052;-69